createdAt,value
2019-03-18T00:00:15.188Z,0.00
2019-03-18T00:01:15.128Z,0.00
2019-03-18T00:02:15.126Z,0.00
2019-03-18T00:03:15.108Z,0.00
2019-03-18T00:04:15.096Z,0.00
2019-03-18T00:05:15.084Z,0.00
2019-03-18T00:06:15.111Z,0.00
2019-03-18T00:07:15.064Z,0.00
2019-03-18T00:08:15.051Z,0.00
2019-03-18T00:09:15.040Z,0.00
2019-03-18T00:10:15.035Z,0.00
2019-03-18T00:11:15.040Z,0.00
2019-03-18T00:12:15.040Z,0.00
2019-03-18T00:13:15.003Z,0.00
2019-03-18T00:14:14.988Z,0.00
2019-03-18T00:15:14.976Z,0.00
2019-03-18T00:16:14.964Z,0.00
2019-03-18T00:17:14.965Z,0.00
2019-03-18T00:18:14.984Z,0.00
2019-03-18T00:19:14.948Z,0.00
2019-03-18T00:20:14.920Z,0.00
2019-03-18T00:21:14.908Z,0.00
2019-03-18T00:22:14.900Z,0.00
2019-03-18T00:23:14.908Z,0.00
2019-03-18T00:24:14.876Z,0.00
2019-03-18T00:25:14.892Z,0.00
2019-03-18T00:26:14.852Z,0.00
2019-03-18T00:27:14.848Z,0.00
2019-03-18T00:28:14.832Z,0.00
2019-03-18T00:29:14.865Z,0.00
2019-03-18T00:30:14.812Z,0.00
2019-03-18T00:31:14.812Z,0.00
2019-03-18T00:32:14.788Z,0.00
2019-03-18T00:33:14.776Z,0.00
2019-03-18T00:34:14.767Z,0.00
2019-03-18T00:35:14.789Z,0.00
2019-03-18T00:36:14.750Z,0.00
2019-03-18T00:37:14.748Z,0.00
2019-03-18T00:38:14.720Z,0.00
2019-03-18T00:39:14.711Z,0.00
2019-03-18T00:40:14.696Z,0.00
2019-03-18T00:41:14.722Z,0.00
2019-03-18T00:42:14.679Z,0.00
2019-03-18T00:43:14.680Z,0.00
2019-03-18T00:44:14.652Z,0.00
2019-03-18T00:45:15.777Z,0.00
2019-03-18T00:46:14.629Z,0.00
2019-03-18T00:47:14.659Z,0.00
2019-03-18T00:48:14.607Z,0.00
2019-03-18T00:49:14.612Z,0.00
2019-03-18T00:50:14.589Z,0.00
2019-03-18T00:51:14.582Z,0.00
2019-03-18T00:52:14.588Z,0.00
2019-03-18T00:53:14.586Z,0.00
2019-03-18T00:54:14.545Z,0.00
2019-03-18T00:55:14.544Z,0.00
2019-03-18T00:56:14.528Z,0.00
2019-03-18T00:57:14.512Z,0.00
2019-03-18T00:58:14.508Z,0.00
2019-03-18T00:59:14.516Z,0.00
2019-03-18T01:00:14.478Z,0.00
2019-03-18T01:01:14.468Z,0.00
2019-03-18T01:02:14.456Z,0.00
2019-03-18T01:03:14.446Z,0.00
2019-03-18T01:04:14.448Z,0.00
2019-03-18T01:05:14.456Z,0.00
2019-03-18T01:06:14.408Z,0.00
2019-03-18T01:07:14.406Z,0.00
2019-03-18T01:08:14.390Z,0.00
2019-03-18T01:09:14.383Z,0.00
2019-03-18T01:10:14.406Z,0.00
2019-03-18T01:11:14.404Z,0.00
2019-03-18T01:12:14.349Z,0.00
2019-03-18T01:13:14.332Z,0.00
2019-03-18T01:14:14.322Z,0.00
2019-03-18T01:15:26.858Z,0.00
2019-03-18T01:16:15.308Z,0.00
2019-03-18T01:17:14.320Z,0.00
2019-03-18T01:18:14.275Z,0.00
2019-03-18T01:19:14.264Z,0.00
2019-03-18T01:20:14.271Z,0.00
2019-03-18T01:21:14.244Z,0.00
2019-03-18T01:22:14.234Z,0.00
2019-03-18T01:23:14.264Z,0.00
2019-03-18T01:24:14.216Z,0.00
2019-03-18T01:25:14.203Z,0.00
2019-03-18T01:26:14.204Z,0.00
2019-03-18T01:27:14.189Z,0.00
2019-03-18T01:28:14.168Z,0.00
2019-03-18T01:29:14.192Z,0.00
2019-03-18T01:30:14.199Z,0.00
2019-03-18T01:31:14.136Z,0.00
2019-03-18T01:32:14.136Z,0.00
2019-03-18T01:33:14.117Z,0.00
2019-03-18T01:34:14.101Z,0.00
2019-03-18T01:35:14.113Z,0.00
2019-03-18T01:36:14.076Z,0.00
2019-03-18T01:37:14.068Z,0.00
2019-03-18T01:38:14.084Z,0.00
2019-03-18T01:39:14.056Z,0.00
2019-03-18T01:40:14.041Z,0.00
2019-03-18T01:41:14.056Z,0.00
2019-03-18T01:42:16.746Z,0.00
2019-03-18T01:43:13.999Z,0.00
2019-03-18T01:44:14.007Z,0.00
2019-03-18T01:45:13.985Z,0.00
2019-03-18T01:46:13.968Z,0.00
2019-03-18T01:47:13.973Z,0.00
2019-03-18T01:48:13.945Z,0.00
2019-03-18T01:49:13.936Z,0.00
2019-03-18T01:50:13.940Z,0.00
2019-03-18T01:51:13.916Z,0.00
2019-03-18T01:52:13.956Z,0.00
2019-03-18T01:53:13.897Z,0.00
2019-03-18T01:54:13.888Z,0.00
2019-03-18T01:55:13.942Z,0.00
2019-03-18T01:56:13.867Z,0.00
2019-03-18T01:57:13.859Z,0.00
2019-03-18T01:58:13.880Z,0.00
2019-03-18T01:59:13.825Z,0.00
2019-03-18T02:00:13.826Z,0.00
2019-03-18T02:01:13.816Z,0.00
2019-03-18T02:02:13.792Z,0.00
2019-03-18T02:03:13.780Z,0.00
2019-03-18T02:04:13.784Z,0.00
2019-03-18T02:05:13.763Z,0.00
2019-03-18T02:06:13.759Z,0.00
2019-03-18T02:07:13.741Z,0.00
2019-03-18T02:08:13.724Z,0.00
2019-03-18T02:09:13.717Z,0.00
2019-03-18T02:10:13.769Z,0.00
2019-03-18T02:11:13.696Z,0.00
2019-03-18T02:12:13.695Z,0.00
2019-03-18T02:13:13.668Z,0.00
2019-03-18T02:14:13.666Z,0.00
2019-03-18T02:15:13.652Z,0.00
2019-03-18T02:16:13.695Z,0.00
2019-03-18T02:17:13.623Z,0.00
2019-03-18T02:18:13.620Z,0.00
2019-03-18T02:19:13.603Z,0.00
2019-03-18T02:20:13.603Z,0.00
2019-03-18T02:21:13.579Z,0.00
2019-03-18T02:22:13.640Z,0.00
2019-03-18T02:23:13.559Z,0.00
2019-03-18T02:24:13.554Z,0.00
2019-03-18T02:25:13.536Z,0.00
2019-03-18T02:26:13.524Z,0.00
2019-03-18T02:27:13.531Z,0.00
2019-03-18T02:28:13.555Z,0.00
2019-03-18T02:29:13.491Z,0.00
2019-03-18T02:30:13.485Z,0.00
2019-03-18T02:31:13.471Z,0.00
2019-03-18T02:32:13.466Z,0.00
2019-03-18T02:33:13.448Z,0.00
2019-03-18T02:34:13.473Z,0.00
2019-03-18T02:35:13.454Z,0.00
2019-03-18T02:36:13.417Z,0.00
2019-03-18T02:37:13.405Z,0.00
2019-03-18T02:38:13.413Z,0.00
2019-03-18T02:39:13.387Z,0.00
2019-03-18T02:40:13.421Z,0.00
2019-03-18T02:41:13.364Z,0.00
2019-03-18T02:42:13.349Z,0.00
2019-03-18T02:43:13.351Z,0.00
2019-03-18T02:44:13.345Z,0.00
2019-03-18T02:45:13.315Z,0.00
2019-03-18T02:46:13.334Z,0.00
2019-03-18T02:47:13.299Z,0.00
2019-03-18T02:48:13.289Z,0.00
2019-03-18T02:49:13.279Z,0.00
2019-03-18T02:50:13.280Z,0.00
2019-03-18T02:51:13.247Z,0.00
2019-03-18T02:52:13.288Z,0.00
2019-03-18T02:53:13.317Z,0.00
2019-03-18T02:54:13.216Z,0.00
2019-03-18T02:55:13.214Z,0.00
2019-03-18T02:56:13.204Z,0.00
2019-03-18T02:57:13.184Z,0.00
2019-03-18T02:58:13.201Z,0.00
2019-03-18T02:59:13.160Z,0.00
2019-03-18T03:00:13.204Z,0.00
2019-03-18T03:01:13.155Z,0.00
2019-03-18T03:02:13.132Z,0.00
2019-03-18T03:03:13.169Z,0.00
2019-03-18T03:04:13.140Z,0.00
2019-03-18T03:05:13.114Z,0.00
2019-03-18T03:06:13.099Z,0.00
2019-03-18T03:07:13.088Z,0.00
2019-03-18T03:08:13.059Z,0.00
2019-03-18T03:09:13.068Z,0.00
2019-03-18T03:10:13.063Z,0.00
2019-03-18T03:11:13.033Z,0.00
2019-03-18T03:12:13.024Z,0.00
2019-03-18T03:13:13.009Z,0.00
2019-03-18T03:14:13.008Z,0.00
2019-03-18T03:15:12.987Z,0.00
2019-03-18T03:16:25.707Z,0.00
2019-03-18T03:17:13.964Z,0.00
2019-03-18T03:18:12.959Z,0.00
2019-03-18T03:19:12.941Z,0.00
2019-03-18T03:20:12.928Z,0.00
2019-03-18T03:21:12.921Z,0.00
2019-03-18T03:22:12.967Z,0.00
2019-03-18T03:23:12.898Z,0.00
2019-03-18T03:24:12.887Z,0.00
2019-03-18T03:25:12.880Z,0.00
2019-03-18T03:26:12.867Z,0.00
2019-03-18T03:27:12.866Z,0.00
2019-03-18T03:28:12.880Z,0.00
2019-03-18T03:29:12.832Z,0.00
2019-03-18T03:30:12.842Z,0.00
2019-03-18T03:31:12.821Z,0.00
2019-03-18T03:32:12.802Z,0.00
2019-03-18T03:33:12.797Z,0.00
2019-03-18T03:34:14.235Z,0.00
2019-03-18T03:35:12.765Z,0.00
2019-03-18T03:36:12.751Z,0.00
2019-03-18T03:37:12.748Z,0.00
2019-03-18T03:38:12.759Z,0.00
2019-03-18T03:39:12.719Z,0.00
2019-03-18T03:40:12.763Z,0.00
2019-03-18T03:41:12.708Z,0.00
2019-03-18T03:42:12.690Z,0.00
2019-03-18T03:43:12.677Z,0.00
2019-03-18T03:44:12.686Z,0.00
2019-03-18T03:45:12.654Z,0.00
2019-03-18T03:46:12.665Z,0.00
2019-03-18T03:47:12.634Z,0.00
2019-03-18T03:48:12.621Z,0.00
2019-03-18T03:49:12.624Z,0.00
2019-03-18T03:50:12.624Z,0.00
2019-03-18T03:51:12.588Z,0.00
2019-03-18T03:52:12.607Z,0.00
2019-03-18T03:53:12.566Z,0.00
2019-03-18T03:54:12.557Z,0.00
2019-03-18T03:55:12.556Z,0.00
2019-03-18T03:56:12.554Z,0.00
2019-03-18T03:57:12.520Z,0.00
2019-03-18T03:58:12.560Z,0.00
2019-03-18T03:59:12.500Z,0.00
2019-03-18T04:00:12.488Z,0.00
2019-03-18T04:01:12.477Z,0.00
2019-03-18T04:02:12.475Z,0.00
2019-03-18T04:03:12.455Z,0.00
2019-03-18T04:04:12.465Z,0.00
2019-03-18T04:05:12.433Z,0.00
2019-03-18T04:06:12.435Z,0.00
2019-03-18T04:07:12.429Z,0.00
2019-03-18T04:08:12.407Z,0.00
2019-03-18T04:09:12.391Z,0.00
2019-03-18T04:10:12.404Z,0.00
2019-03-18T04:11:12.367Z,0.00
2019-03-18T04:12:12.363Z,0.00
2019-03-18T04:13:12.356Z,0.00
2019-03-18T04:14:12.331Z,0.00
2019-03-18T04:15:12.334Z,0.00
2019-03-18T04:16:12.355Z,0.00
2019-03-18T04:17:12.304Z,0.00
2019-03-18T04:18:12.321Z,0.00
2019-03-18T04:19:12.297Z,0.00
2019-03-18T04:20:12.268Z,0.00
2019-03-18T04:21:12.255Z,0.00
2019-03-18T04:22:12.298Z,0.00
2019-03-18T04:23:12.246Z,0.00
2019-03-18T04:24:12.241Z,0.00
2019-03-18T04:25:12.215Z,0.00
2019-03-18T04:26:12.200Z,0.00
2019-03-18T04:27:12.192Z,0.00
2019-03-18T04:28:12.227Z,0.00
2019-03-18T04:29:12.184Z,0.00
2019-03-18T04:30:12.164Z,0.00
2019-03-18T04:31:12.159Z,0.00
2019-03-18T04:32:12.144Z,0.00
2019-03-18T04:33:12.123Z,0.00
2019-03-18T04:34:12.152Z,0.00
2019-03-18T04:35:12.156Z,0.00
2019-03-18T04:36:12.092Z,0.00
2019-03-18T04:37:12.081Z,0.00
2019-03-18T04:38:12.068Z,0.00
2019-03-18T04:39:12.064Z,0.00
2019-03-18T04:40:12.091Z,0.00
2019-03-18T04:41:12.049Z,0.00
2019-03-18T04:42:12.029Z,0.00
2019-03-18T04:43:12.011Z,0.00
2019-03-18T04:44:12.019Z,0.00
2019-03-18T04:45:11.991Z,0.00
2019-03-18T04:46:12.031Z,0.00
2019-03-18T04:47:14.597Z,0.00
2019-03-18T04:48:11.960Z,0.00
2019-03-18T04:49:11.954Z,0.00
2019-03-18T04:50:11.936Z,0.00
2019-03-18T04:51:11.923Z,0.00
2019-03-18T04:52:12.020Z,0.00
2019-03-18T04:53:11.909Z,0.00
2019-03-18T04:54:11.891Z,0.00
2019-03-18T04:55:11.879Z,0.00
2019-03-18T04:56:11.871Z,0.00
2019-03-18T04:57:11.859Z,0.00
2019-03-18T04:58:11.920Z,0.00
2019-03-18T04:59:11.836Z,0.00
2019-03-18T05:00:11.859Z,0.00
2019-03-18T05:01:11.817Z,0.00
2019-03-18T05:02:11.803Z,0.00
2019-03-18T05:03:11.804Z,0.00
2019-03-18T05:04:11.819Z,0.00
2019-03-18T05:05:11.788Z,0.00
2019-03-18T05:06:11.758Z,0.00
2019-03-18T05:07:11.751Z,0.00
2019-03-18T05:08:11.735Z,0.00
2019-03-18T05:09:11.731Z,0.00
2019-03-18T05:10:11.787Z,0.00
2019-03-18T05:11:11.703Z,0.00
2019-03-18T05:12:11.695Z,4.00
2019-03-18T05:13:11.683Z,4.00
2019-03-18T05:14:11.676Z,4.00
2019-03-18T05:15:11.663Z,4.00
2019-03-18T05:16:11.735Z,4.00
2019-03-18T05:17:11.639Z,4.00
2019-03-18T05:18:11.631Z,0.00
2019-03-18T05:19:11.615Z,4.00
2019-03-18T05:20:11.603Z,4.00
2019-03-18T05:21:11.615Z,4.00
2019-03-18T05:22:11.634Z,4.00
2019-03-18T05:23:11.580Z,4.00
2019-03-18T05:24:11.563Z,4.00
2019-03-18T05:25:11.555Z,8.00
2019-03-18T05:26:11.545Z,12.00
2019-03-18T05:27:11.580Z,12.00
2019-03-18T05:28:11.539Z,12.00
2019-03-18T05:29:11.511Z,24.00
2019-03-18T05:30:11.500Z,24.00
2019-03-18T05:31:11.483Z,40.00
2019-03-18T05:32:11.471Z,56.00
2019-03-18T05:33:11.477Z,68.00
2019-03-18T05:34:11.479Z,76.00
2019-03-18T05:35:11.444Z,88.00
2019-03-18T05:36:11.427Z,96.00
2019-03-18T05:37:11.420Z,112.00
2019-03-18T05:38:11.411Z,128.00
2019-03-18T05:39:11.419Z,132.00
2019-03-18T05:40:11.431Z,128.00
2019-03-18T05:41:11.377Z,116.00
2019-03-18T05:42:11.369Z,104.00
2019-03-18T05:43:11.356Z,96.00
2019-03-18T05:44:11.347Z,112.00
2019-03-18T05:45:11.394Z,108.00
2019-03-18T05:46:11.321Z,108.00
2019-03-18T05:47:11.344Z,124.00
2019-03-18T05:48:11.303Z,144.00
2019-03-18T05:49:11.288Z,160.00
2019-03-18T05:50:11.282Z,168.00
2019-03-18T05:51:11.275Z,208.00
2019-03-18T05:52:11.257Z,208.00
2019-03-18T05:53:11.286Z,220.00
2019-03-18T05:54:11.231Z,204.00
2019-03-18T05:55:11.221Z,220.00
2019-03-18T05:56:11.226Z,216.00
2019-03-18T05:57:11.200Z,320.00
2019-03-18T05:58:11.186Z,324.00
2019-03-18T05:59:11.209Z,312.00
2019-03-18T06:00:11.163Z,316.00
2019-03-18T06:01:11.152Z,344.00
2019-03-18T06:02:11.150Z,364.00
2019-03-18T06:03:11.132Z,364.00
2019-03-18T06:04:11.126Z,420.00
2019-03-18T06:05:11.129Z,412.00
2019-03-18T06:06:11.101Z,460.00
2019-03-18T06:07:11.115Z,520.00
2019-03-18T06:08:11.824Z,500.00
2019-03-18T06:09:11.067Z,512.00
2019-03-18T06:10:11.058Z,532.00
2019-03-18T06:11:11.062Z,564.00
2019-03-18T06:12:11.030Z,580.00
2019-03-18T06:13:11.031Z,624.00
2019-03-18T06:14:11.012Z,744.00
2019-03-18T06:15:10.997Z,876.00
2019-03-18T06:16:10.985Z,756.00
2019-03-18T06:17:10.989Z,568.00
2019-03-18T06:18:11.056Z,516.00
2019-03-18T06:19:10.966Z,592.00
2019-03-18T06:20:10.942Z,624.00
2019-03-18T06:21:10.934Z,664.00
2019-03-18T06:22:10.922Z,664.00
2019-03-18T06:23:10.928Z,548.00
2019-03-18T06:24:10.902Z,524.00
2019-03-18T06:25:11.017Z,528.00
2019-03-18T06:26:10.875Z,600.00
2019-03-18T06:27:10.905Z,732.00
2019-03-18T06:28:10.856Z,604.00
2019-03-18T06:29:10.887Z,652.00
2019-03-18T06:30:10.830Z,664.00
2019-03-18T06:31:10.830Z,728.00
2019-03-18T06:32:10.817Z,960.00
2019-03-18T06:33:10.801Z,1128.00
2019-03-18T06:34:10.786Z,912.00
2019-03-18T06:35:10.818Z,780.00
2019-03-18T06:36:10.771Z,776.00
2019-03-18T06:37:10.766Z,672.00
2019-03-18T06:38:10.742Z,632.00
2019-03-18T06:39:10.734Z,660.00
2019-03-18T06:40:10.722Z,752.00
2019-03-18T06:41:10.742Z,616.00
2019-03-18T06:42:10.705Z,560.00
2019-03-18T06:43:10.723Z,576.00
2019-03-18T06:44:10.678Z,716.00
2019-03-18T06:45:10.667Z,648.00
2019-03-18T06:46:10.654Z,464.00
2019-03-18T06:47:10.678Z,500.00
2019-03-18T06:48:10.639Z,596.00
2019-03-18T06:49:10.622Z,716.00
2019-03-18T06:50:10.616Z,524.00
2019-03-18T06:51:10.598Z,552.00
2019-03-18T06:52:10.624Z,744.00
2019-03-18T06:53:10.610Z,800.00
2019-03-18T06:54:10.565Z,948.00
2019-03-18T06:55:10.554Z,1164.00
2019-03-18T06:56:10.542Z,1392.00
2019-03-18T06:57:10.542Z,1208.00
2019-03-18T06:58:10.527Z,1116.00
2019-03-18T06:59:10.542Z,1360.00
2019-03-18T07:00:10.498Z,1292.00
2019-03-18T07:01:10.490Z,1212.00
2019-03-18T07:02:10.478Z,1100.00
2019-03-18T07:03:10.469Z,1220.00
2019-03-18T07:04:10.456Z,1620.00
2019-03-18T07:05:10.507Z,1924.00
2019-03-18T07:06:10.432Z,2220.00
2019-03-18T07:07:10.422Z,1580.00
2019-03-18T07:08:10.416Z,1200.00
2019-03-18T07:09:10.401Z,1108.00
2019-03-18T07:10:10.410Z,1256.00
2019-03-18T07:11:10.402Z,1564.00
2019-03-18T07:12:10.366Z,1104.00
2019-03-18T07:13:10.358Z,1076.00
2019-03-18T07:14:10.360Z,980.00
2019-03-18T07:15:10.333Z,740.00
2019-03-18T07:16:10.340Z,780.00
2019-03-18T07:17:10.320Z,776.00
2019-03-18T07:18:18.211Z,1116.00
2019-03-18T07:19:11.287Z,1392.00
2019-03-18T07:20:10.278Z,1488.00
2019-03-18T07:21:10.265Z,1556.00
2019-03-18T07:22:10.285Z,1884.00
2019-03-18T07:23:10.266Z,1660.00
2019-03-18T07:24:10.233Z,1664.00
2019-03-18T07:25:10.224Z,2012.00
2019-03-18T07:26:10.222Z,2116.00
2019-03-18T07:27:10.201Z,2252.00
2019-03-18T07:28:10.218Z,2376.00
2019-03-18T07:29:10.204Z,2976.00
2019-03-18T07:30:10.168Z,3116.00
2019-03-18T07:31:10.154Z,3480.00
2019-03-18T07:32:10.144Z,4240.00
2019-03-18T07:33:10.132Z,4196.00
2019-03-18T07:34:10.133Z,3272.00
2019-03-18T07:35:10.144Z,2956.00
2019-03-18T07:36:10.104Z,2608.00
2019-03-18T07:37:10.098Z,2116.00
2019-03-18T07:38:10.077Z,2048.00
2019-03-18T07:39:10.071Z,2124.00
2019-03-18T07:40:11.327Z,2152.00
2019-03-18T07:41:10.095Z,2552.00
2019-03-18T07:42:10.033Z,3132.00
2019-03-18T07:43:10.023Z,2840.00
2019-03-18T07:44:10.012Z,3496.00
2019-03-18T07:45:10.001Z,2816.00
2019-03-18T07:46:09.989Z,2736.00
2019-03-18T07:47:10.009Z,2768.00
2019-03-18T07:48:12.458Z,2760.00
2019-03-18T07:49:09.955Z,2720.00
2019-03-18T07:50:09.946Z,2908.00
2019-03-18T07:51:09.933Z,2888.00
2019-03-18T07:52:09.925Z,2912.00
2019-03-18T07:53:09.957Z,2912.00
2019-03-18T07:54:09.917Z,3108.00
2019-03-18T07:55:09.893Z,3044.00
2019-03-18T07:56:09.881Z,2808.00
2019-03-18T07:57:09.866Z,2576.00
2019-03-18T07:58:09.860Z,2752.00
2019-03-18T07:59:09.864Z,2800.00
2019-03-18T08:00:09.846Z,2804.00
2019-03-18T08:01:09.836Z,3248.00
2019-03-18T08:02:09.814Z,3540.00
2019-03-18T08:03:09.806Z,3532.00
2019-03-18T08:04:09.801Z,3956.00
2019-03-18T08:05:09.806Z,3868.00
2019-03-18T08:06:09.769Z,3616.00
2019-03-18T08:07:09.757Z,3568.00
2019-03-18T08:08:09.745Z,3856.00
2019-03-18T08:09:09.749Z,4548.00
2019-03-18T08:10:09.728Z,4120.00
2019-03-18T08:11:09.725Z,3140.00
2019-03-18T08:12:09.700Z,2468.00
2019-03-18T08:13:09.689Z,2932.00
2019-03-18T08:14:09.750Z,3140.00
2019-03-18T08:15:09.696Z,3540.00
2019-03-18T08:16:09.656Z,3512.00
2019-03-18T08:17:09.665Z,3608.00
2019-03-18T08:18:09.637Z,3328.00
2019-03-18T08:19:09.650Z,3020.00
2019-03-18T08:20:09.619Z,3252.00
2019-03-18T08:21:09.613Z,2904.00
2019-03-18T08:22:09.590Z,2640.00
2019-03-18T08:23:09.620Z,2736.00
2019-03-18T08:24:09.566Z,2748.00
2019-03-18T08:25:09.556Z,2740.00
2019-03-18T08:26:09.550Z,3108.00
2019-03-18T08:27:09.542Z,3080.00
2019-03-18T08:28:09.539Z,3392.00
2019-03-18T08:29:09.525Z,3060.00
2019-03-18T08:30:09.505Z,2704.00
2019-03-18T08:31:09.489Z,2284.00
2019-03-18T08:32:11.755Z,2600.00
2019-03-18T08:33:09.473Z,3664.00
2019-03-18T08:34:09.468Z,3344.00
2019-03-18T08:35:09.481Z,2624.00
2019-03-18T08:36:09.462Z,2520.00
2019-03-18T08:37:09.429Z,2380.00
2019-03-18T08:38:09.426Z,3116.00
2019-03-18T08:39:09.405Z,2708.00
2019-03-18T08:40:09.397Z,2608.00
2019-03-18T08:41:09.409Z,2396.00
2019-03-18T08:42:09.400Z,1976.00
2019-03-18T08:43:09.360Z,2312.00
2019-03-18T08:44:09.347Z,2176.00
2019-03-18T08:45:09.340Z,2820.00
2019-03-18T08:46:09.325Z,3436.00
2019-03-18T08:47:09.348Z,4308.00
2019-03-18T08:48:09.312Z,4836.00
2019-03-18T08:49:09.296Z,4316.00
2019-03-18T08:50:11.907Z,4060.00
2019-03-18T08:51:09.269Z,3316.00
2019-03-18T08:52:09.262Z,3580.00
2019-03-18T08:53:09.325Z,4452.00
2019-03-18T08:54:09.237Z,5032.00
2019-03-18T08:55:09.225Z,5180.00
2019-03-18T08:56:09.213Z,5428.00
2019-03-18T08:57:09.207Z,5088.00
2019-03-18T08:58:09.193Z,5456.00
2019-03-18T08:59:09.214Z,4724.00
2019-03-18T09:00:09.169Z,4768.00
2019-03-18T09:01:09.162Z,4804.00
2019-03-18T09:02:09.148Z,4656.00
2019-03-18T09:03:09.136Z,5096.00
2019-03-18T09:04:09.143Z,4624.00
2019-03-18T09:05:09.123Z,4728.00
2019-03-18T09:06:09.104Z,3688.00
2019-03-18T09:07:09.088Z,3876.00
2019-03-18T09:08:09.085Z,3788.00
2019-03-18T09:09:09.069Z,3532.00
2019-03-18T09:10:09.083Z,3932.00
2019-03-18T09:11:09.060Z,3644.00
2019-03-18T09:12:09.037Z,4064.00
2019-03-18T09:13:09.025Z,3616.00
2019-03-18T09:14:09.014Z,3720.00
2019-03-18T09:15:09.005Z,4628.00
2019-03-18T09:16:09.009Z,4300.00
2019-03-18T09:17:08.992Z,4288.00
2019-03-18T09:18:08.966Z,3956.00
2019-03-18T09:19:09.378Z,4100.00
2019-03-18T09:20:08.949Z,4180.00
2019-03-18T09:21:08.934Z,5328.00
2019-03-18T09:22:08.945Z,5484.00
2019-03-18T09:23:08.933Z,5852.00
2019-03-18T09:24:08.933Z,6096.00
2019-03-18T09:25:08.895Z,5196.00
2019-03-18T09:26:08.879Z,5968.00
2019-03-18T09:27:08.890Z,5888.00
2019-03-18T09:28:08.881Z,5444.00
2019-03-18T09:29:08.846Z,5008.00
2019-03-18T09:30:08.834Z,4524.00
2019-03-18T09:31:08.862Z,4620.00
2019-03-18T09:32:08.810Z,4192.00
2019-03-18T09:33:08.818Z,4080.00
2019-03-18T09:34:08.806Z,4004.00
2019-03-18T09:35:08.783Z,4100.00
2019-03-18T09:36:08.770Z,4432.00
2019-03-18T09:37:08.765Z,4756.00
2019-03-18T09:38:08.762Z,4472.00
2019-03-18T09:39:08.735Z,3740.00
2019-03-18T09:40:08.764Z,4380.00
2019-03-18T09:41:08.710Z,5448.00
2019-03-18T09:42:08.731Z,6060.00
2019-03-18T09:43:08.691Z,6500.00
2019-03-18T09:44:08.690Z,6036.00
2019-03-18T09:45:08.670Z,5596.00
2019-03-18T09:46:08.686Z,5128.00
2019-03-18T09:47:08.646Z,4512.00
2019-03-18T09:48:08.637Z,3964.00
2019-03-18T09:49:20.611Z,3484.00
2019-03-18T09:50:09.610Z,3120.00
2019-03-18T09:51:09.776Z,2916.00
2019-03-18T09:52:08.610Z,3036.00
2019-03-18T09:53:08.579Z,3672.00
2019-03-18T09:54:08.574Z,3952.00
2019-03-18T09:55:08.569Z,3868.00
2019-03-18T09:56:08.546Z,5160.00
2019-03-18T09:57:08.538Z,4852.00
2019-03-18T09:58:08.562Z,5404.00
2019-03-18T09:59:08.512Z,5460.00
2019-03-18T10:00:08.506Z,6032.00
2019-03-18T10:01:08.490Z,5872.00
2019-03-18T10:02:08.479Z,5908.00
2019-03-18T10:03:08.474Z,6552.00
2019-03-18T10:04:08.486Z,5840.00
2019-03-18T10:05:08.444Z,5800.00
2019-03-18T10:06:08.434Z,6444.00
2019-03-18T10:07:08.422Z,4980.00
2019-03-18T10:08:08.412Z,4820.00
2019-03-18T10:09:08.424Z,5272.00
2019-03-18T10:10:08.426Z,5084.00
2019-03-18T10:11:08.382Z,4520.00
2019-03-18T10:12:08.370Z,4680.00
2019-03-18T10:13:08.358Z,4088.00
2019-03-18T10:14:08.347Z,4012.00
2019-03-18T10:15:08.354Z,4720.00
2019-03-18T10:16:08.382Z,5528.00
2019-03-18T10:17:09.857Z,4860.00
2019-03-18T10:18:08.302Z,4300.00
2019-03-18T10:19:08.290Z,3872.00
2019-03-18T10:20:08.278Z,4068.00
2019-03-18T10:21:08.282Z,4732.00
2019-03-18T10:22:08.270Z,5296.00
2019-03-18T10:23:08.247Z,4404.00
2019-03-18T10:24:08.234Z,5652.00
2019-03-18T10:25:08.223Z,5780.00
2019-03-18T10:26:08.214Z,5036.00
2019-03-18T10:27:08.215Z,4892.00
2019-03-18T10:28:08.207Z,3488.00
2019-03-18T10:29:08.178Z,2968.00
2019-03-18T10:30:08.165Z,3700.00
2019-03-18T10:31:08.154Z,4640.00
2019-03-18T10:32:08.157Z,4716.00
2019-03-18T10:33:08.154Z,4860.00
2019-03-18T10:34:08.137Z,4992.00
2019-03-18T10:35:08.110Z,5520.00
2019-03-18T10:36:08.114Z,5556.00
2019-03-18T10:37:08.094Z,5112.00
2019-03-18T10:38:08.080Z,3160.00
2019-03-18T10:39:08.082Z,3632.00
2019-03-18T10:40:08.088Z,4776.00
2019-03-18T10:41:08.091Z,5076.00
2019-03-18T10:42:08.044Z,5084.00
2019-03-18T10:43:08.030Z,5196.00
2019-03-18T10:44:08.014Z,5348.00
2019-03-18T10:45:08.017Z,4676.00
2019-03-18T10:46:08.002Z,5448.00
2019-03-18T10:47:07.978Z,6188.00
2019-03-18T10:48:07.966Z,5876.00
2019-03-18T10:49:07.957Z,6016.00
2019-03-18T10:50:07.943Z,6696.00
2019-03-18T10:51:07.961Z,6728.00
2019-03-18T10:52:07.953Z,6500.00
2019-03-18T10:53:07.913Z,5776.00
2019-03-18T10:54:07.898Z,5272.00
2019-03-18T10:55:07.914Z,5156.00
2019-03-18T10:56:08.369Z,5552.00
2019-03-18T10:57:07.902Z,7496.00
2019-03-18T10:58:07.852Z,7604.00
2019-03-18T10:59:07.856Z,6864.00
2019-03-18T11:00:07.834Z,6152.00
2019-03-18T11:01:07.825Z,5328.00
2019-03-18T11:02:07.809Z,5320.00
2019-03-18T11:03:07.829Z,5428.00
2019-03-18T11:04:07.785Z,5504.00
2019-03-18T11:05:08.325Z,3824.00
2019-03-18T11:06:07.766Z,5272.00
2019-03-18T11:07:07.754Z,5408.00
2019-03-18T11:08:07.742Z,3568.00
2019-03-18T11:09:07.750Z,3508.00
2019-03-18T11:10:07.727Z,3448.00
2019-03-18T11:11:07.748Z,3448.00
2019-03-18T11:12:07.701Z,5240.00
2019-03-18T11:13:07.688Z,5236.00
2019-03-18T11:14:07.680Z,5348.00
2019-03-18T11:15:07.705Z,5748.00
2019-03-18T11:16:07.653Z,6228.00
2019-03-18T11:17:07.663Z,7008.00
2019-03-18T11:18:07.633Z,7064.00
2019-03-18T11:19:07.619Z,6776.00
2019-03-18T11:20:07.609Z,6976.00
2019-03-18T11:21:07.617Z,7616.00
2019-03-18T11:22:07.585Z,7872.00
2019-03-18T11:23:07.585Z,6588.00
2019-03-18T11:24:07.562Z,6108.00
2019-03-18T11:25:07.553Z,5416.00
2019-03-18T11:26:07.541Z,4760.00
2019-03-18T11:27:07.586Z,4368.00
2019-03-18T11:28:07.531Z,4212.00
2019-03-18T11:29:07.521Z,4404.00
2019-03-18T11:30:07.497Z,4608.00
2019-03-18T11:31:07.486Z,4432.00
2019-03-18T11:32:07.477Z,4084.00
2019-03-18T11:33:07.523Z,3956.00
2019-03-18T11:34:07.453Z,4032.00
2019-03-18T11:35:07.443Z,3784.00
2019-03-18T11:36:07.433Z,3836.00
2019-03-18T11:37:07.420Z,3712.00
2019-03-18T11:38:07.406Z,3308.00
2019-03-18T11:39:07.412Z,3228.00
2019-03-18T11:40:07.414Z,3412.00
2019-03-18T11:41:07.374Z,3652.00
2019-03-18T11:42:07.366Z,4268.00
2019-03-18T11:43:07.349Z,4800.00
2019-03-18T11:44:07.344Z,5272.00
2019-03-18T11:45:08.285Z,5324.00
2019-03-18T11:46:07.353Z,4932.00
2019-03-18T11:47:07.305Z,4560.00
2019-03-18T11:48:07.318Z,4212.00
2019-03-18T11:49:07.285Z,3916.00
2019-03-18T11:50:11.548Z,3224.00
2019-03-18T11:51:07.261Z,2828.00
2019-03-18T11:52:07.289Z,2620.00
2019-03-18T11:53:14.206Z,2492.00
2019-03-18T11:54:08.244Z,2408.00
2019-03-18T11:55:07.220Z,2300.00
2019-03-18T11:56:07.233Z,2176.00
2019-03-18T11:57:07.228Z,2056.00
2019-03-18T11:58:07.209Z,1896.00
2019-03-18T11:59:07.177Z,1792.00
2019-03-18T12:00:07.162Z,1876.00
2019-03-18T12:01:07.155Z,1940.00
2019-03-18T12:02:07.166Z,1956.00
2019-03-18T12:03:07.133Z,1924.00
2019-03-18T12:04:07.148Z,1944.00
2019-03-18T12:05:07.105Z,2040.00
2019-03-18T12:06:07.093Z,2352.00
2019-03-18T12:07:07.085Z,2732.00
2019-03-18T12:08:07.081Z,3084.00
2019-03-18T12:09:07.084Z,3560.00
2019-03-18T12:10:07.077Z,3920.00
2019-03-18T12:11:07.041Z,4304.00
2019-03-18T12:12:07.026Z,4556.00
2019-03-18T12:13:07.026Z,4792.00
2019-03-18T12:14:07.037Z,5056.00
2019-03-18T12:15:06.993Z,5060.00
2019-03-18T12:16:07.001Z,4840.00
2019-03-18T12:17:06.981Z,4508.00
2019-03-18T12:18:06.964Z,4404.00
2019-03-18T12:19:06.949Z,4204.00
2019-03-18T12:20:06.953Z,4096.00
2019-03-18T12:21:06.928Z,4180.00
2019-03-18T12:22:06.957Z,4232.00
2019-03-18T12:23:06.916Z,3980.00
2019-03-18T12:24:06.892Z,3864.00
2019-03-18T12:25:06.880Z,3872.00
2019-03-18T12:26:06.897Z,4052.00
2019-03-18T12:27:06.861Z,4552.00
2019-03-18T12:28:06.871Z,5172.00
2019-03-18T12:29:06.926Z,5712.00
2019-03-18T12:30:06.825Z,6108.00
2019-03-18T12:31:06.816Z,6632.00
2019-03-18T12:32:06.817Z,6892.00
2019-03-18T12:33:06.794Z,7128.00
2019-03-18T12:34:06.824Z,7064.00
2019-03-18T12:35:06.769Z,7060.00
2019-03-18T12:36:06.774Z,6768.00
2019-03-18T12:37:06.764Z,6288.00
2019-03-18T12:38:06.741Z,5996.00